Time;durP1;ratioP1;P1;durP2;ratioP2;P2;SDS_P1;SDS_P2;PMS_P1;PMS_P2;Temp;Humidity;BMP_temperature;BMP_pressure;BME280_temperature;BME280_humidity;BME280_pressure;Samples;Min_cycle;Max_cycle;Signal;HPM_P1;HPM_P2
2023/05/16 00:00:40;;;;;;;12.10;9.60;;;13.20;99.90;;;;;;5063486;28;20445;-71
2023/05/16 00:03:25;;;;;;;16.67;9.90;;;13.20;99.90;;;;;;5066429;28;20550;-71
2023/05/16 00:06:11;;;;;;;11.40;9.40;;;13.20;99.90;;;;;;5083211;28;20453;-70
2023/05/16 00:08:57;;;;;;;13.30;9.20;;;13.10;99.90;;;;;;5076697;28;20462;-72
2023/05/16 00:11:42;;;;;;;10.60;8.53;;;13.20;99.90;;;;;;5079710;28;20417;-71
2023/05/16 00:14:28;;;;;;;10.57;9.47;;;13.20;99.90;;;;;;5077564;28;20443;-72
2023/05/16 00:17:16;;;;;;;11.13;9.00;;;13.20;99.90;;;;;;5062434;28;20483;-74
2023/05/16 00:20:09;;;;;;;13.83;8.93;;;13.30;99.90;;;;;;5067943;28;20426;-70
2023/05/16 00:22:55;;;;;;;11.07;9.90;;;13.30;99.90;;;;;;5064294;28;20551;-72
2023/05/16 00:25:41;;;;;;;22.97;11.00;;;13.20;99.90;;;;;;5067435;28;20830;-71
2023/05/16 00:28:26;;;;;;;16.00;9.70;;;13.30;99.90;;;;;;5071078;28;20668;-73
2023/05/16 00:31:12;;;;;;;11.43;9.50;;;13.40;99.90;;;;;;5062612;28;20422;-73
2023/05/16 00:33:59;;;;;;;11.33;9.53;;;13.50;99.90;;;;;;5071511;28;20468;-71
2023/05/16 00:36:44;;;;;;;11.27;10.07;;;13.50;99.90;;;;;;5064314;28;20839;-73
2023/05/16 00:39:30;;;;;;;13.63;9.23;;;13.50;99.90;;;;;;5069799;28;20781;-71
2023/05/16 00:42:15;;;;;;;12.40;9.60;;;13.50;99.90;;;;;;5079323;28;20447;-71
2023/05/16 00:45:01;;;;;;;13.00;9.83;;;13.50;99.90;;;;;;5076764;28;20464;-72
2023/05/16 00:47:46;;;;;;;11.50;9.17;;;13.50;99.90;;;;;;5064906;28;20442;-72
2023/05/16 00:50:34;;;;;;;17.90;10.67;;;13.50;99.90;;;;;;5071075;28;20449;-71
2023/05/16 00:53:20;;;;;;;14.63;9.57;;;13.50;99.90;;;;;;5073386;28;20932;-70
2023/05/16 00:56:06;;;;;;;13.00;9.37;;;13.50;99.90;;;;;;5071594;28;20458;-75
2023/05/16 00:58:51;;;;;;;12.10;10.67;;;13.50;99.90;;;;;;5070018;28;20477;-73
2023/05/16 01:01:37;;;;;;;14.40;9.60;;;13.50;99.90;;;;;;5068652;28;20443;-71
2023/05/16 01:04:23;;;;;;;15.73;10.10;;;13.50;99.90;;;;;;5082927;28;20438;-71
2023/05/16 01:07:10;;;;;;;12.60;10.13;;;13.50;99.90;;;;;;5079850;28;20802;-71
2023/05/16 01:09:55;;;;;;;13.70;10.17;;;13.40;99.90;;;;;;5071345;28;20445;-74
2023/05/16 01:12:48;;;;;;;12.97;10.67;;;13.40;99.90;;;;;;5074275;28;20831;-71
2023/05/16 01:15:39;;;;;;;12.50;11.20;;;13.40;99.90;;;;;;5079913;28;20612;-72
2023/05/16 01:18:34;;;;;;;20.30;11.90;;;13.40;99.90;;;;;;5081586;28;20440;-72
2023/05/16 01:21:31;;;;;;;13.77;10.90;;;13.30;99.90;;;;;;5061946;28;20977;-71
2023/05/16 01:24:26;;;;;;;11.63;10.43;;;13.30;99.90;;;;;;5083205;28;20468;-73
2023/05/16 01:27:14;;;;;;;14.63;10.60;;;13.40;99.90;;;;;;5073105;28;20455;-74
2023/05/16 01:29:59;;;;;;;13.53;10.63;;;13.40;99.90;;;;;;5070578;28;20535;-72
2023/05/16 01:32:45;;;;;;;12.93;9.87;;;13.30;99.90;;;;;;5066387;28;20502;-72
2023/05/16 01:35:31;;;;;;;15.93;10.73;;;13.30;99.90;;;;;;5070406;28;20473;-72
2023/05/16 01:38:25;;;;;;;12.20;10.50;;;13.30;99.90;;;;;;5068865;28;20479;-71
2023/05/16 01:41:20;;;;;;;16.00;11.93;;;13.30;99.90;;;;;;5069701;28;20626;-71
2023/05/16 01:44:16;;;;;;;14.63;12.57;;;13.20;99.90;;;;;;5074439;28;20458;-76
2023/05/16 01:47:07;;;;;;;16.03;13.53;;;13.20;99.90;;;;;;5071745;28;20456;-73
2023/05/16 01:49:59;;;;;;;15.93;13.03;;;13.20;99.90;;;;;;5069897;28;20427;-71
2023/05/16 01:52:50;;;;;;;16.90;14.30;;;13.20;99.90;;;;;;5068088;28;20581;-71
2023/05/16 01:55:43;;;;;;;17.67;12.97;;;13.20;99.90;;;;;;5074601;28;20479;-72
2023/05/16 01:58:32;;;;;;;22.00;15.93;;;13.20;99.90;;;;;;5065924;28;20444;-71
2023/05/16 02:01:19;;;;;;;31.40;17.67;;;13.30;99.90;;;;;;5072280;28;20435;-72
2023/05/16 02:04:05;;;;;;;19.53;15.67;;;13.40;99.90;;;;;;5074367;28;20438;-76
2023/05/16 02:06:51;;;;;;;21.30;15.90;;;13.30;99.90;;;;;;5065990;28;20451;-71
2023/05/16 02:09:36;;;;;;;25.23;17.77;;;13.40;99.90;;;;;;5064695;28;20456;-72
2023/05/16 02:12:21;;;;;;;30.40;22.23;;;13.30;99.90;;;;;;5083389;28;20475;-75
2023/05/16 02:15:08;;;;;;;31.50;23.77;;;13.40;99.90;;;;;;5065122;28;20448;-71
2023/05/16 02:17:55;;;;;;;30.20;22.57;;;13.50;99.90;;;;;;5063025;28;20411;-72
2023/05/16 02:20:40;;;;;;;29.40;20.47;;;13.40;99.90;;;;;;5065191;28;20456;-76
2023/05/16 02:23:25;;;;;;;28.67;20.67;;;13.40;99.90;;;;;;5062119;28;20430;-71
2023/05/16 02:26:11;;;;;;;27.57;20.80;;;13.50;99.90;;;;;;5066854;28;20572;-71
2023/05/16 02:28:57;;;;;;;30.30;21.83;;;13.50;99.90;;;;;;5062984;28;20540;-74
2023/05/16 02:31:42;;;;;;;27.07;21.27;;;13.50;99.90;;;;;;5067190;28;20441;-72
2023/05/16 02:34:29;;;;;;;30.40;20.50;;;13.50;99.90;;;;;;5076871;22;20496;-71
2023/05/16 02:37:15;;;;;;;28.87;21.43;;;13.60;99.90;;;;;;5043621;28;20474;-73
2023/05/16 02:40:00;;;;;;;27.83;21.60;;;13.60;99.90;;;;;;5046215;28;20829;-73
2023/05/16 02:42:45;;;;;;;30.13;22.63;;;13.50;99.90;;;;;;5056507;28;20461;-73
2023/05/16 02:45:31;;;;;;;29.60;21.40;;;13.50;99.90;;;;;;5058044;28;20462;-73
2023/05/16 02:48:17;;;;;;;29.23;22.50;;;13.40;99.90;;;;;;5046335;28;20439;-73
2023/05/16 02:51:03;;;;;;;29.73;21.97;;;13.30;99.90;;;;;;5062905;28;20419;-73
2023/05/16 02:53:49;;;;;;;26.07;20.90;;;13.30;99.90;;;;;;5049523;28;20679;-73
2023/05/16 02:56:36;;;;;;;26.10;20.80;;;13.30;99.90;;;;;;5056367;28;20535;-73
2023/05/16 02:59:21;;;;;;;28.40;22.27;;;13.30;99.90;;;;;;5050659;28;20414;-73
2023/05/16 03:02:06;;;;;;;27.87;22.13;;;13.30;99.90;;;;;;5052346;28;20502;-73
2023/05/16 03:04:52;;;;;;;28.97;22.07;;;13.30;99.90;;;;;;5050222;28;20456;-73
2023/05/16 03:07:39;;;;;;;32.10;22.70;;;13.20;99.90;;;;;;5046755;28;20449;-72
2023/05/16 03:10:24;;;;;;;37.20;22.33;;;13.30;99.90;;;;;;5052002;28;20948;-73
2023/05/16 03:13:10;;;;;;;30.73;22.50;;;13.10;99.90;;;;;;5050990;28;20435;-73
2023/05/16 03:15:56;;;;;;;30.13;22.37;;;13.10;99.90;;;;;;5042323;28;20937;-73
2023/05/16 03:18:41;;;;;;;29.30;22.37;;;13.00;99.90;;;;;;5041634;28;21067;-73
2023/05/16 03:21:27;;;;;;;30.13;24.00;;;12.90;99.90;;;;;;5056331;28;20754;-73
2023/05/16 03:24:14;;;;;;;29.23;22.67;;;12.80;99.90;;;;;;5047265;28;20446;-73
2023/05/16 03:26:59;;;;;;;36.60;25.57;;;12.80;99.90;;;;;;5041958;28;20596;-74
2023/05/16 03:29:45;;;;;;;30.40;23.93;;;12.60;99.90;;;;;;5057211;28;20492;-73
2023/05/16 03:32:30;;;;;;;32.73;24.00;;;12.60;99.90;;;;;;5045456;28;20465;-73
2023/05/16 03:35:16;;;;;;;30.27;23.53;;;12.50;99.90;;;;;;5053353;28;20837;-72
2023/05/16 03:38:01;;;;;;;31.50;24.50;;;12.40;99.90;;;;;;5057089;28;20829;-72
2023/05/16 03:40:48;;;;;;;30.17;24.10;;;12.40;99.90;;;;;;5060317;28;20469;-72
2023/05/16 03:43:33;;;;;;;29.90;23.40;;;12.50;99.90;;;;;;5059938;28;20506;-73
2023/05/16 03:46:19;;;;;;;32.17;23.27;;;12.50;99.90;;;;;;5050942;28;20427;-72
2023/05/16 03:49:05;;;;;;;36.30;23.83;;;12.50;99.90;;;;;;5047103;28;20496;-72
2023/05/16 03:51:50;;;;;;;35.10;23.90;;;12.50;99.90;;;;;;5050940;28;20534;-73
2023/05/16 03:54:36;;;;;;;29.87;21.90;;;12.40;99.90;;;;;;5057732;28;20506;-72
2023/05/16 03:57:23;;;;;;;32.27;24.87;;;12.50;99.90;;;;;;5056165;28;20475;-72
2023/05/16 04:00:09;;;;;;;28.10;22.53;;;12.40;99.90;;;;;;5053806;28;20465;-73
2023/05/16 04:02:54;;;;;;;31.60;24.00;;;12.40;99.90;;;;;;5051601;28;20452;-72
2023/05/16 04:05:40;;;;;;;31.30;22.87;;;12.40;99.90;;;;;;5050480;28;21162;-72
2023/05/16 04:08:25;;;;;;;28.60;22.07;;;12.40;99.90;;;;;;5053134;28;20784;-73
2023/05/16 04:11:11;;;;;;;30.53;23.17;;;12.40;99.90;;;;;;5054857;28;20446;-73
2023/05/16 04:14:00;;;;;;;32.63;23.50;;;12.40;99.90;;;;;;5056896;28;20486;-72
2023/05/16 04:16:46;;;;;;;32.73;24.80;;;12.30;99.90;;;;;;5049292;28;20472;-73
2023/05/16 04:19:31;;;;;;;29.67;22.83;;;12.40;99.90;;;;;;5051937;28;20454;-72
2023/05/16 04:22:17;;;;;;;37.77;22.50;;;12.40;99.90;;;;;;5051300;28;20428;-72
2023/05/16 04:25:03;;;;;;;34.63;25.70;;;12.40;99.90;;;;;;5056590;28;20544;-73
2023/05/16 04:27:48;;;;;;;32.30;24.97;;;12.40;99.90;;;;;;5057918;28;20438;-72
2023/05/16 04:30:36;;;;;;;37.40;25.77;;;12.40;99.90;;;;;;5046873;28;20541;-72
2023/05/16 04:33:21;;;;;;;34.23;26.13;;;12.40;99.90;;;;;;5050726;28;20464;-72
2023/05/16 04:36:07;;;;;;;36.97;25.60;;;12.30;99.90;;;;;;5047716;28;20455;-73
2023/05/16 04:38:52;;;;;;;28.50;22.53;;;12.30;99.90;;;;;;5048822;28;20453;-73
2023/05/16 04:41:38;;;;;;;29.87;24.27;;;12.40;99.90;;;;;;5058496;28;20414;-73
2023/05/16 04:44:23;;;;;;;37.73;25.00;;;12.40;99.90;;;;;;5044516;28;20596;-72
2023/05/16 04:47:10;;;;;;;32.73;23.90;;;12.40;99.90;;;;;;5042218;28;20432;-73
2023/05/16 04:49:56;;;;;;;38.47;26.27;;;12.50;99.90;;;;;;5047127;28;20424;-72
2023/05/16 04:52:41;;;;;;;33.83;25.50;;;12.50;99.90;;;;;;5048024;28;20796;-73
2023/05/16 04:55:27;;;;;;;34.60;26.00;;;12.60;99.90;;;;;;5045831;28;20473;-73
2023/05/16 04:58:12;;;;;;;36.53;26.50;;;12.60;99.90;;;;;;5047626;28;20457;-72
2023/05/16 05:00:58;;;;;;;35.63;25.77;;;12.70;99.90;;;;;;5045799;28;20827;-73
2023/05/16 05:03:44;;;;;;;36.70;27.17;;;12.90;99.90;;;;;;5051287;28;20429;-73
2023/05/16 05:06:30;;;;;;;34.83;25.63;;;13.00;99.90;;;;;;5043177;28;20864;-72
2023/05/16 05:09:16;;;;;;;35.93;25.63;;;13.10;99.90;;;;;;5048091;28;20813;-72
2023/05/16 05:12:01;;;;;;;43.63;25.33;;;13.10;99.90;;;;;;5048334;28;20535;-73
2023/05/16 05:14:46;;;;;;;33.70;24.07;;;13.30;99.90;;;;;;5056801;28;20992;-72
2023/05/16 05:17:32;;;;;;;31.43;23.40;;;13.40;99.90;;;;;;5058349;28;20839;-73
2023/05/16 05:20:19;;;;;;;33.97;23.60;;;13.50;99.90;;;;;;5055551;28;20557;-73
2023/05/16 05:23:05;;;;;;;34.40;22.30;;;13.40;99.90;;;;;;5052289;28;20454;-73
2023/05/16 05:25:50;;;;;;;32.47;24.70;;;13.50;99.90;;;;;;5051464;28;20834;-73
2023/05/16 05:28:36;;;;;;;37.00;22.23;;;13.50;99.90;;;;;;5051933;28;20436;-73
2023/05/16 05:31:22;;;;;;;34.30;23.97;;;13.50;99.90;;;;;;5058009;28;20812;-73
2023/05/16 05:34:07;;;;;;;33.43;22.93;;;13.60;99.90;;;;;;5053681;28;20782;-73
2023/05/16 05:36:54;;;;;;;36.90;21.90;;;13.60;99.90;;;;;;5045261;28;20473;-73
2023/05/16 05:39:40;;;;;;;31.33;22.50;;;13.60;99.90;;;;;;5056338;28;20543;-73
2023/05/16 05:42:25;;;;;;;31.80;21.87;;;13.60;99.90;;;;;;5052409;28;20434;-73
2023/05/16 05:45:11;;;;;;;28.03;20.27;;;13.70;99.90;;;;;;5045402;28;20447;-73
2023/05/16 05:47:56;;;;;;;32.33;20.30;;;13.70;99.90;;;;;;5050504;28;20427;-73
2023/05/16 05:50:42;;;;;;;29.00;20.30;;;13.80;99.90;;;;;;5056944;28;20505;-73
2023/05/16 05:53:29;;;;;;;29.30;20.30;;;13.80;99.90;;;;;;5053261;28;20424;-73
2023/05/16 05:56:14;;;;;;;31.60;20.40;;;13.80;99.90;;;;;;5054740;28;20943;-73
2023/05/16 05:59:00;;;;;;;30.27;18.67;;;13.90;99.90;;;;;;5051465;28;20838;-72
2023/05/16 06:01:45;;;;;;;26.43;16.80;;;13.90;99.90;;;;;;5042553;28;21132;-72
2023/05/16 06:04:31;;;;;;;23.53;15.60;;;13.90;99.90;;;;;;5049912;28;20679;-72
2023/05/16 06:07:17;;;;;;;21.77;17.90;;;13.90;99.90;;;;;;5057147;28;20455;-73
2023/05/16 06:10:04;;;;;;;19.00;14.13;;;13.80;99.90;;;;;;5051703;28;20779;-72
2023/05/16 06:12:50;;;;;;;22.97;14.80;;;13.90;99.90;;;;;;5040962;28;20446;-73
2023/05/16 06:15:35;;;;;;;18.50;13.23;;;13.90;99.90;;;;;;5043371;28;20461;-73
2023/05/16 06:18:21;;;;;;;18.67;12.87;;;13.90;99.90;;;;;;5048119;28;20651;-72
2023/05/16 06:21:06;;;;;;;18.03;12.10;;;13.80;99.90;;;;;;5049454;28;20969;-73
2023/05/16 06:23:52;;;;;;;15.90;11.50;;;13.90;99.90;;;;;;5042111;28;20936;-72
2023/05/16 06:26:39;;;;;;;14.40;10.13;;;13.80;99.90;;;;;;5049765;28;20861;-73
2023/05/16 06:29:24;;;;;;;10.60;8.83;;;13.90;99.90;;;;;;5049366;28;21008;-73
2023/05/16 06:32:10;;;;;;;12.83;7.80;;;14.00;99.90;;;;;;5043675;28;20499;-72
2023/05/16 06:34:56;;;;;;;10.73;7.87;;;14.00;99.90;;;;;;5045148;28;20464;-73
2023/05/16 06:37:41;;;;;;;11.57;7.40;;;14.00;99.90;;;;;;5049828;28;20968;-73
2023/05/16 06:40:26;;;;;;;10.30;6.87;;;13.90;99.90;;;;;;5054379;28;21024;-72
2023/05/16 06:43:14;;;;;;;9.93;5.40;;;13.90;99.90;;;;;;5049847;28;20447;-72
2023/05/16 06:45:59;;;;;;;6.60;4.90;;;13.90;99.90;;;;;;5058516;28;20468;-73
2023/05/16 06:48:44;;;;;;;6.47;4.30;;;13.80;99.90;;;;;;5054341;28;20414;-72
2023/05/16 06:51:30;;;;;;;6.30;4.80;;;13.80;99.90;;;;;;5050331;28;20439;-73
2023/05/16 06:54:15;;;;;;;9.00;5.60;;;13.70;99.90;;;;;;5046068;28;20513;-73
2023/05/16 06:57:02;;;;;;;8.23;4.50;;;13.70;99.90;;;;;;5047540;28;20444;-73
2023/05/16 06:59:48;;;;;;;7.47;4.70;;;13.80;99.90;;;;;;5062144;28;20790;-73
2023/05/16 07:02:34;;;;;;;6.33;4.07;;;13.70;99.90;;;;;;5049041;28;20444;-72
2023/05/16 07:05:19;;;;;;;6.90;3.97;;;13.80;99.90;;;;;;5044976;28;20494;-73
2023/05/16 07:08:05;;;;;;;9.00;4.30;;;13.70;99.90;;;;;;5050962;28;20499;-72
2023/05/16 07:10:51;;;;;;;6.10;4.30;;;13.70;99.90;;;;;;5054780;28;20416;-72
2023/05/16 07:13:36;;;;;;;5.53;3.90;;;13.80;99.90;;;;;;5044004;28;20500;-73
2023/05/16 07:16:27;;;;;;;9.67;4.53;;;13.80;99.90;;;;;;5050017;28;20431;-72
2023/05/16 07:19:12;;;;;;;7.77;4.33;;;13.80;99.90;;;;;;5054598;28;20451;-73
2023/05/16 07:21:58;;;;;;;6.00;4.70;;;13.80;99.90;;;;;;5053821;28;20427;-72
2023/05/16 07:24:43;;;;;;;7.17;4.87;;;13.80;99.90;;;;;;5048705;28;20468;-73
2023/05/16 07:27:29;;;;;;;6.10;4.53;;;13.80;99.90;;;;;;5044257;28;20411;-72
2023/05/16 07:30:15;;;;;;;8.17;4.63;;;13.70;99.90;;;;;;5055608;28;20466;-72
2023/05/16 07:33:01;;;;;;;7.10;4.17;;;13.70;99.90;;;;;;5052167;28;20513;-73
2023/05/16 07:35:46;;;;;;;6.10;4.57;;;13.60;99.90;;;;;;5045029;28;21060;-72
2023/05/16 07:38:32;;;;;;;6.60;5.30;;;13.60;99.90;;;;;;5050449;28;20527;-72
2023/05/16 07:41:17;;;;;;;5.83;4.67;;;13.60;99.90;;;;;;5050497;28;20423;-72
2023/05/16 07:44:03;;;;;;;6.00;4.30;;;13.70;99.90;;;;;;5043247;28;21062;-72
2023/05/16 07:46:49;;;;;;;4.97;4.03;;;13.60;99.90;;;;;;5053231;28;20427;-73
2023/05/16 07:49:36;;;;;;;3.30;2.50;;;13.60;99.90;;;;;;5052710;28;20522;-73
2023/05/16 07:52:21;;;;;;;4.00;2.40;;;13.60;99.90;;;;;;5047254;28;20432;-73
2023/05/16 07:55:08;;;;;;;3.40;2.57;;;13.50;99.90;;;;;;5050413;28;20447;-72
2023/05/16 07:57:54;;;;;;;4.00;1.70;;;13.50;99.90;;;;;;5037465;28;20458;-73
2023/05/16 08:00:39;;;;;;;2.07;1.30;;;13.40;99.90;;;;;;5048640;28;20539;-73
2023/05/16 08:03:25;;;;;;;3.07;1.77;;;13.30;99.90;;;;;;5044025;28;20446;-73
2023/05/16 08:06:12;;;;;;;6.10;2.17;;;13.20;99.90;;;;;;5051578;28;20442;-73
2023/05/16 08:08:57;;;;;;;2.07;1.40;;;13.30;99.90;;;;;;5047598;28;20518;-72
2023/05/16 08:11:45;;;;;;;3.87;1.40;;;13.30;99.90;;;;;;5048382;28;20440;-72
2023/05/16 08:14:31;;;;;;;2.60;1.60;;;13.30;99.90;;;;;;5051351;28;20455;-72
2023/05/16 08:17:17;;;;;;;1.70;1.10;;;13.40;99.90;;;;;;5043237;28;20431;-72
2023/05/16 08:20:03;;;;;;;1.53;1.10;;;13.40;99.90;;;;;;5046297;28;20581;-72
2023/05/16 08:22:49;;;;;;;2.73;1.13;;;13.50;99.90;;;;;;5037942;28;20457;-72
2023/05/16 08:25:35;;;;;;;2.47;1.30;;;13.60;99.90;;;;;;5050177;28;20444;-72
2023/05/16 08:28:20;;;;;;;4.70;1.40;;;13.70;99.90;;;;;;5047441;28;20458;-72
2023/05/16 08:31:06;;;;;;;3.40;1.20;;;13.60;99.90;;;;;;5047005;28;20665;-71
2023/05/16 08:33:51;;;;;;;3.20;1.40;;;13.70;99.90;;;;;;5047477;28;20427;-71
2023/05/16 08:36:37;;;;;;;2.43;1.50;;;13.70;99.90;;;;;;5061130;22;20417;-87
2023/05/16 08:39:25;;;;;;;2.20;1.40;;;13.70;99.90;;;;;;5072232;28;20439;-86
2023/05/16 08:42:10;;;;;;;2.00;1.30;;;13.80;99.90;;;;;;5065696;28;20492;-87
2023/05/16 08:44:56;;;;;;;2.10;1.33;;;13.70;99.90;;;;;;5075784;28;20413;-86
2023/05/16 08:47:43;;;;;;;2.80;2.00;;;13.60;99.90;;;;;;5068852;28;20458;-86
2023/05/16 08:50:31;;;;;;;2.23;1.60;;;13.50;99.90;;;;;;5074614;28;20436;-86
2023/05/16 08:53:21;;;;;;;3.30;2.27;;;13.60;99.90;;;;;;5069015;28;20505;-87
2023/05/16 08:56:10;;;;;;;3.90;2.10;;;13.60;99.90;;;;;;5071490;28;20431;-87
2023/05/16 08:58:56;;;;;;;3.17;2.13;;;13.50;99.90;;;;;;5069707;28;20459;-87
2023/05/16 09:01:42;;;;;;;3.47;2.30;;;13.40;99.90;;;;;;5065518;28;20802;-87
2023/05/16 09:04:27;;;;;;;4.10;1.90;;;13.40;99.90;;;;;;5064195;28;20419;-87
2023/05/16 09:07:13;;;;;;;2.87;2.27;;;13.50;99.90;;;;;;5062195;28;20476;-87
2023/05/16 09:09:58;;;;;;;2.50;1.77;;;13.50;99.90;;;;;;5068028;28;20524;-87
2023/05/16 09:12:45;;;;;;;2.00;1.53;;;13.50;99.90;;;;;;5058137;28;20469;-86
2023/05/16 09:15:32;;;;;;;2.70;1.70;;;13.50;99.90;;;;;;5071788;28;21024;-86
2023/05/16 09:18:21;;;;;;;2.83;1.77;;;13.60;99.90;;;;;;5064221;28;20558;-87
2023/05/16 09:21:07;;;;;;;3.10;1.70;;;13.70;99.90;;;;;;5068495;28;20415;-86
2023/05/16 09:23:53;;;;;;;2.90;1.80;;;13.70;99.90;;;;;;5067579;28;20874;-87
2023/05/16 09:26:39;;;;;;;2.40;1.50;;;13.70;99.90;;;;;;5065073;28;20497;-87
2023/05/16 09:29:26;;;;;;;2.43;1.60;;;13.60;99.90;;;;;;5072047;28;20437;-87
2023/05/16 09:32:14;;;;;;;1.80;1.30;;;13.50;99.90;;;;;;5066324;28;20953;-86
2023/05/16 09:34:59;;;;;;;1.77;0.90;;;13.50;99.90;;;;;;5066142;28;20591;-86
2023/05/16 09:37:46;;;;;;;1.83;1.10;;;13.30;99.90;;;;;;5068650;28;20985;-86
2023/05/16 09:40:31;;;;;;;2.00;1.20;;;13.30;99.90;;;;;;5072558;28;20517;-87
2023/05/16 09:43:18;;;;;;;3.10;1.30;;;13.40;99.90;;;;;;5070839;28;20479;-86
2023/05/16 09:46:04;;;;;;;3.50;1.10;;;13.30;99.90;;;;;;5067737;28;20418;-86
2023/05/16 09:48:52;;;;;;;3.47;1.10;;;13.40;99.90;;;;;;5072317;28;20452;-87
2023/05/16 09:51:38;;;;;;;2.20;1.17;;;13.30;99.90;;;;;;5074502;28;20824;-86
2023/05/16 09:54:31;;;;;;;4.00;1.20;;;13.20;99.90;;;;;;5069960;28;20566;-86
2023/05/16 09:57:18;;;;;;;10.50;1.00;;;13.10;99.90;;;;;;5067410;28;20509;-87
2023/05/16 10:00:07;;;;;;;1.60;1.00;;;13.00;99.90;;;;;;5074392;28;20443;-86
2023/05/16 10:02:57;;;;;;;4.10;1.10;;;13.00;99.90;;;;;;5069821;28;20521;-87
2023/05/16 10:05:43;;;;;;;2.80;1.20;;;13.00;99.90;;;;;;5066868;28;20537;-86
2023/05/16 10:08:34;;;;;;;2.93;1.80;;;13.00;99.90;;;;;;5070967;28;21017;-86
2023/05/16 10:11:20;;;;;;;2.23;1.30;;;13.10;99.90;;;;;;5071817;28;20425;-87
2023/05/16 10:14:10;;;;;;;2.17;1.30;;;13.10;99.90;;;;;;5050373;28;20809;-86
2023/05/16 10:16:57;;;;;;;2.10;1.10;;;13.10;99.90;;;;;;5069793;28;22483;-86
2023/05/16 10:19:46;;;;;;;3.20;1.27;;;13.20;99.90;;;;;;5062394;28;20472;-86
2023/05/16 10:22:34;;;;;;;5.67;3.20;;;13.20;99.90;;;;;;5070531;28;21071;-86
2023/05/16 10:25:28;;;;;;;2.70;1.20;;;13.30;99.90;;;;;;5061682;28;20453;-87
2023/05/16 10:28:15;;;;;;;2.87;1.87;;;13.20;99.90;;;;;;5067186;28;20447;-87
2023/05/16 10:31:01;;;;;;;3.57;1.67;;;13.30;99.90;;;;;;5072204;28;20430;-86
2023/05/16 10:33:47;;;;;;;4.40;1.23;;;13.20;99.90;;;;;;5066091;28;20561;-86
2023/05/16 10:36:34;;;;;;;3.40;1.13;;;13.20;99.90;;;;;;5067418;28;20441;-87
2023/05/16 10:39:20;;;;;;;7.60;1.57;;;13.30;99.90;;;;;;5065980;28;20478;-86
2023/05/16 10:42:06;;;;;;;2.60;1.23;;;13.40;99.90;;;;;;5063999;28;20432;-87
2023/05/16 10:44:55;;;;;;;2.40;1.30;;;13.50;99.90;;;;;;5066654;28;20489;-87
2023/05/16 10:47:40;;;;;;;3.13;1.60;;;13.50;99.90;;;;;;5071777;28;20534;-87
2023/05/16 10:50:36;;;;;;;4.13;1.50;;;13.60;99.90;;;;;;5073126;28;20957;-87
2023/05/16 10:53:31;;;;;;;3.03;1.43;;;13.80;99.90;;;;;;5072111;28;20592;-87
2023/05/16 10:56:21;;;;;;;3.40;1.63;;;13.80;99.90;;;;;;5070058;28;20471;-87
2023/05/16 10:59:24;;;;;;;2.40;1.17;;;13.80;99.90;;;;;;5070541;28;20849;-86
2023/05/16 11:02:23;;;;;;;3.07;1.70;;;13.90;99.10;;;;;;5073050;28;20418;-87
2023/05/16 11:05:13;;;;;;;4.80;1.70;;;13.90;99.10;;;;;;5071746;28;20483;-86
2023/05/16 11:08:06;;;;;;;3.90;1.40;;;13.90;99.20;;;;;;5066626;28;20438;-87
2023/05/16 11:11:31;;;;;;;2.57;1.27;;;13.90;98.50;;;;;;5073016;28;20415;-87
2023/05/16 11:14:21;;;;;;;2.47;1.33;;;13.90;98.10;;;;;;5072816;28;20406;-86
2023/05/16 11:17:10;;;;;;;2.30;1.30;;;13.80;97.70;;;;;;5064986;28;20487;-87
2023/05/16 11:19:58;;;;;;;6.87;1.90;;;13.80;99.10;;;;;;5060961;28;20536;-86
2023/05/16 11:22:43;;;;;;;4.43;1.83;;;13.80;97.40;;;;;;5065126;28;20443;-87
2023/05/16 11:25:38;;;;;;;5.20;2.73;;;13.80;98.00;;;;;;5070159;28;20990;-87
2023/05/16 11:28:26;;;;;;;3.83;1.60;;;13.80;97.00;;;;;;5063256;28;20993;-86
2023/05/16 11:31:12;;;;;;;3.20;1.30;;;13.90;97.80;;;;;;5070797;28;20982;-87
2023/05/16 11:33:57;;;;;;;5.03;1.60;;;14.00;96.00;;;;;;5061112;28;20566;-86
2023/05/16 11:36:43;;;;;;;3.20;1.70;;;14.00;96.40;;;;;;5058666;28;20471;-87
2023/05/16 11:39:31;;;;;;;3.13;1.60;;;14.10;94.30;;;;;;5069591;28;20484;-87
2023/05/16 11:42:16;;;;;;;2.90;1.87;;;14.10;94.40;;;;;;5069434;28;20480;-87
2023/05/16 11:45:08;;;;;;;5.77;1.97;;;14.20;93.00;;;;;;5067495;28;20420;-87
2023/05/16 11:47:54;;;;;;;7.30;1.67;;;14.10;92.70;;;;;;5067999;28;20478;-87
2023/05/16 11:50:40;;;;;;;6.07;2.13;;;14.10;91.10;;;;;;5058372;28;20511;-87
2023/05/16 11:53:27;;;;;;;4.40;1.70;;;14.20;90.60;;;;;;5070545;28;20419;-86
2023/05/16 11:56:12;;;;;;;4.30;1.70;;;14.20;91.10;;;;;;5061428;28;20575;-86
2023/05/16 11:59:00;;;;;;;6.27;1.80;;;14.30;88.90;;;;;;5065542;28;20817;-88
2023/05/16 12:01:48;;;;;;;4.70;1.83;;;14.40;91.20;;;;;;5066666;28;20493;-86
2023/05/16 12:04:33;;;;;;;4.40;2.13;;;14.50;86.00;;;;;;5074188;28;20511;-86
2023/05/16 12:07:19;;;;;;;4.60;1.77;;;14.40;84.90;;;;;;5068501;28;20818;-84
2023/05/16 12:10:06;;;;;;;5.63;2.10;;;14.40;83.90;;;;;;5074436;28;20424;-87
2023/05/16 12:12:52;;;;;;;5.33;1.80;;;14.40;84.40;;;;;;5065454;28;21060;-86
2023/05/16 12:15:38;;;;;;;10.53;2.60;;;14.30;84.30;;;;;;5074188;28;20434;-86
2023/05/16 12:18:25;;;;;;;11.97;2.23;;;14.30;84.10;;;;;;5074599;28;20447;-86
2023/05/16 12:21:11;;;;;;;5.70;2.40;;;14.20;83.70;;;;;;5076278;28;20414;-86
2023/05/16 12:23:57;;;;;;;5.83;2.50;;;14.10;83.10;;;;;;5066344;28;20537;-85
2023/05/16 12:26:43;;;;;;;7.77;2.10;;;14.00;85.20;;;;;;5064403;28;20530;-86
2023/05/16 12:29:31;;;;;;;4.13;2.20;;;14.10;83.30;;;;;;5078563;28;20919;-87
2023/05/16 12:32:18;;;;;;;4.90;1.87;;;14.00;79.90;;;;;;5072853;28;20427;-87
2023/05/16 12:35:06;;;;;;;6.10;2.10;;;14.00;82.10;;;;;;5067151;28;20824;-86
2023/05/16 12:37:53;;;;;;;5.80;2.30;;;14.00;82.40;;;;;;5060041;28;20487;-85
2023/05/16 12:40:40;;;;;;;5.23;1.63;;;14.10;84.20;;;;;;5066056;28;20454;-86
2023/05/16 12:43:26;;;;;;;8.60;2.17;;;14.20;82.40;;;;;;5079973;28;20439;-86
2023/05/16 12:46:11;;;;;;;3.50;1.90;;;14.20;78.60;;;;;;5071955;28;20739;-86
2023/05/16 12:49:03;;;;;;;7.50;2.07;;;14.20;79.20;;;;;;5080927;28;20418;-87
2023/05/16 12:51:51;;;;;;;11.33;2.13;;;14.30;76.70;;;;;;5074559;28;20445;-86
2023/05/16 12:54:37;;;;;;;8.03;2.17;;;14.20;76.80;;;;;;5082182;28;20427;-86
2023/05/16 12:57:22;;;;;;;9.90;1.83;;;14.30;75.60;;;;;;5076576;28;20437;-86
2023/05/16 13:00:10;;;;;;;13.87;1.93;;;14.40;74.10;;;;;;5067667;28;20472;-86
2023/05/16 13:02:56;;;;;;;4.90;2.10;;;14.40;74.70;;;;;;5078925;28;20443;-86
2023/05/16 13:05:41;;;;;;;7.30;2.33;;;14.50;73.20;;;;;;5072110;28;20435;-87
2023/05/16 13:08:28;;;;;;;10.90;2.77;;;14.60;74.30;;;;;;5074410;28;20450;-86
2023/05/16 13:11:13;;;;;;;4.47;1.90;;;14.70;76.30;;;;;;5071995;28;20416;-86
2023/05/16 13:13:59;;;;;;;7.50;2.10;;;14.70;73.30;;;;;;5076738;28;20419;-86
2023/05/16 13:16:44;;;;;;;4.80;2.07;;;14.70;72.10;;;;;;5078218;28;20900;-86
2023/05/16 13:19:31;;;;;;;6.50;2.63;;;14.90;71.90;;;;;;5073999;28;22560;-87
2023/05/16 13:22:17;;;;;;;5.20;1.97;;;14.90;72.80;;;;;;5075450;28;20450;-86
2023/05/16 13:25:05;;;;;;;6.00;1.83;;;15.00;70.00;;;;;;5075714;28;20498;-86
2023/05/16 13:27:50;;;;;;;4.10;1.63;;;15.00;66.20;;;;;;5080984;28;20443;-86
2023/05/16 13:30:35;;;;;;;7.10;2.37;;;15.00;67.10;;;;;;5065845;28;20923;-87
2023/05/16 13:33:21;;;;;;;5.47;1.73;;;15.10;65.00;;;;;;5070558;28;20974;-87
2023/05/16 13:36:07;;;;;;;9.30;1.97;;;15.00;60.30;;;;;;5074116;28;20487;-87
2023/05/16 13:38:53;;;;;;;6.77;2.00;;;15.00;54.50;;;;;;5065323;28;20442;-87
2023/05/16 13:41:41;;;;;;;5.57;1.70;;;15.00;55.80;;;;;;5070557;28;20527;-87
2023/05/16 13:44:26;;;;;;;7.70;1.67;;;15.00;54.50;;;;;;5078020;28;20972;-87
2023/05/16 13:47:12;;;;;;;11.00;1.93;;;15.00;52.90;;;;;;5073340;28;20646;-86
2023/05/16 13:49:58;;;;;;;9.90;1.77;;;15.20;51.80;;;;;;5068022;28;20855;-86
2023/05/16 13:52:43;;;;;;;6.13;1.47;;;15.40;53.90;;;;;;5072380;28;21090;-87
2023/05/16 13:55:29;;;;;;;6.80;2.30;;;15.50;48.50;;;;;;5083253;28;20448;-86
2023/05/16 13:58:16;;;;;;;6.57;1.97;;;15.60;46.00;;;;;;5083978;28;20467;-87
2023/05/16 14:01:02;;;;;;;5.10;1.37;;;15.60;44.40;;;;;;5066719;28;20437;-86
2023/05/16 14:03:48;;;;;;;5.73;1.30;;;15.60;44.40;;;;;;5084420;28;20405;-86
2023/05/16 14:09:05;;;;;;;7.53;1.80;;;15.80;45.30;;;;;;5024859;28;20486;-70
2023/05/16 14:11:50;;;;;;;8.83;1.20;;;15.90;46.90;;;;;;5028155;28;20454;-72
2023/05/16 14:14:37;;;;;;;8.03;1.50;;;16.00;43.40;;;;;;5025900;28;20812;-72
2023/05/16 14:17:22;;;;;;;6.10;1.80;;;16.30;44.70;;;;;;5027931;28;20433;-72
2023/05/16 14:20:09;;;;;;;5.17;1.50;;;16.60;42.40;;;;;;5028027;28;20482;-73